sensor_id;sensor_type;location;lat;lon;timestamp;P1;durP1;ratioP1;P2;durP2;ratioP2
13485;SDS011;6815;59.336;17.998;2022-09-09T00:04:51;0.90;;;0.73;;
13485;SDS011;6815;59.336;17.998;2022-09-09T00:15:36;0.93;;;0.80;;
13485;SDS011;6815;59.336;17.998;2022-09-09T00:23:44;0.70;;;0.70;;
13485;SDS011;6815;59.336;17.998;2022-09-09T00:26:48;2.47;;;1.00;;
13485;SDS011;6815;59.336;17.998;2022-09-09T00:29:13;2.00;;;0.80;;
13485;SDS011;6815;59.336;17.998;2022-09-09T00:31:41;0.90;;;0.70;;
13485;SDS011;6815;59.336;17.998;2022-09-09T00:36:36;0.57;;;0.57;;
13485;SDS011;6815;59.336;17.998;2022-09-09T00:39:03;0.93;;;0.63;;
13485;SDS011;6815;59.336;17.998;2022-09-09T00:50:01;0.63;;;0.40;;
13485;SDS011;6815;59.336;17.998;2022-09-09T00:57:40;0.90;;;0.67;;
13485;SDS011;6815;59.336;17.998;2022-09-09T01:05:34;1.70;;;0.80;;
13485;SDS011;6815;59.336;17.998;2022-09-09T01:08:34;0.70;;;0.70;;
13485;SDS011;6815;59.336;17.998;2022-09-09T01:11:22;0.83;;;0.80;;
13485;SDS011;6815;59.336;17.998;2022-09-09T01:16:54;0.90;;;0.73;;
13485;SDS011;6815;59.336;17.998;2022-09-09T01:19:27;1.87;;;0.80;;
13485;SDS011;6815;59.336;17.998;2022-09-09T01:22:15;0.80;;;0.70;;
13485;SDS011;6815;59.336;17.998;2022-09-09T01:27:31;1.63;;;0.63;;
13485;SDS011;6815;59.336;17.998;2022-09-09T01:29:58;0.87;;;0.60;;
13485;SDS011;6815;59.336;17.998;2022-09-09T01:32:44;1.73;;;0.60;;
13485;SDS011;6815;59.336;17.998;2022-09-09T01:37:56;1.73;;;0.70;;
13485;SDS011;6815;59.336;17.998;2022-09-09T01:40:22;0.50;;;0.50;;
13485;SDS011;6815;59.336;17.998;2022-09-09T01:42:48;0.50;;;0.50;;
13485;SDS011;6815;59.336;17.998;2022-09-09T01:45:14;3.70;;;0.80;;
13485;SDS011;6815;59.336;17.998;2022-09-09T01:47:39;0.60;;;0.60;;
13485;SDS011;6815;59.336;17.998;2022-09-09T01:50:06;1.03;;;0.60;;
13485;SDS011;6815;59.336;17.998;2022-09-09T01:52:36;1.00;;;0.60;;
13485;SDS011;6815;59.336;17.998;2022-09-09T01:55:02;1.00;;;0.63;;
13485;SDS011;6815;59.336;17.998;2022-09-09T01:57:50;0.67;;;0.60;;
13485;SDS011;6815;59.336;17.998;2022-09-09T02:00:23;2.00;;;0.80;;
13485;SDS011;6815;59.336;17.998;2022-09-09T02:05:39;1.43;;;0.70;;
13485;SDS011;6815;59.336;17.998;2022-09-09T02:08:15;1.70;;;0.80;;
13485;SDS011;6815;59.336;17.998;2022-09-09T02:11:08;1.80;;;0.70;;
13485;SDS011;6815;59.336;17.998;2022-09-09T02:13:36;1.20;;;0.80;;
13485;SDS011;6815;59.336;17.998;2022-09-09T02:18:30;0.70;;;0.70;;
13485;SDS011;6815;59.336;17.998;2022-09-09T02:21:00;2.23;;;0.73;;
13485;SDS011;6815;59.336;17.998;2022-09-09T02:23:28;0.87;;;0.80;;
13485;SDS011;6815;59.336;17.998;2022-09-09T02:25:54;1.27;;;0.70;;
13485;SDS011;6815;59.336;17.998;2022-09-09T02:28:23;0.80;;;0.70;;
13485;SDS011;6815;59.336;17.998;2022-09-09T02:30:52;0.60;;;0.60;;
13485;SDS011;6815;59.336;17.998;2022-09-09T02:33:19;0.97;;;0.60;;
13485;SDS011;6815;59.336;17.998;2022-09-09T02:35:50;1.17;;;0.70;;
13485;SDS011;6815;59.336;17.998;2022-09-09T02:38:16;1.23;;;0.83;;
13485;SDS011;6815;59.336;17.998;2022-09-09T02:40:42;2.10;;;0.87;;
13485;SDS011;6815;59.336;17.998;2022-09-09T02:43:08;0.77;;;0.60;;
13485;SDS011;6815;59.336;17.998;2022-09-09T02:45:41;2.23;;;0.83;;
13485;SDS011;6815;59.336;17.998;2022-09-09T02:48:41;1.53;;;0.60;;
13485;SDS011;6815;59.336;17.998;2022-09-09T02:51:32;0.80;;;0.70;;
13485;SDS011;6815;59.336;17.998;2022-09-09T02:57:06;2.03;;;0.67;;
13485;SDS011;6815;59.336;17.998;2022-09-09T02:59:37;0.67;;;0.60;;
13485;SDS011;6815;59.336;17.998;2022-09-09T03:02:03;0.83;;;0.63;;
13485;SDS011;6815;59.336;17.998;2022-09-09T03:04:28;1.10;;;0.80;;
13485;SDS011;6815;59.336;17.998;2022-09-09T03:06:56;2.83;;;0.83;;
13485;SDS011;6815;59.336;17.998;2022-09-09T03:09:23;5.00;;;1.00;;
13485;SDS011;6815;59.336;17.998;2022-09-09T03:11:49;2.83;;;0.80;;
13485;SDS011;6815;59.336;17.998;2022-09-09T03:14:15;0.67;;;0.67;;
13485;SDS011;6815;59.336;17.998;2022-09-09T03:16:41;2.97;;;1.10;;
13485;SDS011;6815;59.336;17.998;2022-09-09T03:19:07;1.50;;;0.87;;
13485;SDS011;6815;59.336;17.998;2022-09-09T03:21:33;3.13;;;0.83;;
13485;SDS011;6815;59.336;17.998;2022-09-09T03:23:59;1.53;;;0.80;;
13485;SDS011;6815;59.336;17.998;2022-09-09T03:26:26;0.87;;;0.80;;
13485;SDS011;6815;59.336;17.998;2022-09-09T03:28:52;1.97;;;0.80;;
13485;SDS011;6815;59.336;17.998;2022-09-09T03:31:19;1.50;;;0.80;;
13485;SDS011;6815;59.336;17.998;2022-09-09T03:33:44;2.63;;;1.10;;
13485;SDS011;6815;59.336;17.998;2022-09-09T03:36:13;0.97;;;0.80;;
13485;SDS011;6815;59.336;17.998;2022-09-09T03:38:42;2.83;;;0.80;;
13485;SDS011;6815;59.336;17.998;2022-09-09T03:41:07;1.70;;;1.00;;
13485;SDS011;6815;59.336;17.998;2022-09-09T03:43:33;2.87;;;0.90;;
13485;SDS011;6815;59.336;17.998;2022-09-09T03:45:59;1.27;;;0.87;;
13485;SDS011;6815;59.336;17.998;2022-09-09T03:48:25;1.93;;;0.70;;
13485;SDS011;6815;59.336;17.998;2022-09-09T03:50:53;1.60;;;0.70;;
13485;SDS011;6815;59.336;17.998;2022-09-09T03:53:23;1.23;;;0.80;;
13485;SDS011;6815;59.336;17.998;2022-09-09T03:55:50;2.57;;;0.80;;
13485;SDS011;6815;59.336;17.998;2022-09-09T03:58:20;1.47;;;0.80;;
13485;SDS011;6815;59.336;17.998;2022-09-09T04:00:53;3.70;;;1.07;;
13485;SDS011;6815;59.336;17.998;2022-09-09T04:03:23;2.00;;;1.00;;
13485;SDS011;6815;59.336;17.998;2022-09-09T04:05:52;6.27;;;1.00;;
13485;SDS011;6815;59.336;17.998;2022-09-09T04:08:19;1.20;;;0.80;;
13485;SDS011;6815;59.336;17.998;2022-09-09T04:10:46;0.80;;;0.80;;
13485;SDS011;6815;59.336;17.998;2022-09-09T04:13:13;3.00;;;0.97;;
13485;SDS011;6815;59.336;17.998;2022-09-09T04:15:41;2.83;;;0.80;;
13485;SDS011;6815;59.336;17.998;2022-09-09T04:18:07;2.40;;;1.10;;
13485;SDS011;6815;59.336;17.998;2022-09-09T04:20:32;2.20;;;1.00;;
13485;SDS011;6815;59.336;17.998;2022-09-09T04:22:58;1.27;;;0.80;;
13485;SDS011;6815;59.336;17.998;2022-09-09T04:25:24;2.80;;;0.93;;
13485;SDS011;6815;59.336;17.998;2022-09-09T04:27:56;1.57;;;0.93;;
13485;SDS011;6815;59.336;17.998;2022-09-09T04:30:22;3.80;;;0.87;;
13485;SDS011;6815;59.336;17.998;2022-09-09T04:32:48;4.53;;;1.10;;
13485;SDS011;6815;59.336;17.998;2022-09-09T04:35:13;1.90;;;1.00;;
13485;SDS011;6815;59.336;17.998;2022-09-09T04:37:39;1.77;;;0.90;;
13485;SDS011;6815;59.336;17.998;2022-09-09T04:40:05;2.67;;;1.10;;
13485;SDS011;6815;59.336;17.998;2022-09-09T04:42:34;1.83;;;0.90;;
13485;SDS011;6815;59.336;17.998;2022-09-09T04:45:00;2.30;;;1.00;;
13485;SDS011;6815;59.336;17.998;2022-09-09T04:47:26;2.27;;;1.00;;
13485;SDS011;6815;59.336;17.998;2022-09-09T04:49:52;0.97;;;0.87;;
13485;SDS011;6815;59.336;17.998;2022-09-09T04:52:19;2.07;;;1.10;;
13485;SDS011;6815;59.336;17.998;2022-09-09T04:54:45;3.30;;;1.00;;
13485;SDS011;6815;59.336;17.998;2022-09-09T04:57:11;1.50;;;0.90;;
13485;SDS011;6815;59.336;17.998;2022-09-09T04:59:36;3.73;;;0.90;;
13485;SDS011;6815;59.336;17.998;2022-09-09T05:02:04;1.50;;;1.00;;
13485;SDS011;6815;59.336;17.998;2022-09-09T05:04:30;4.30;;;1.40;;
13485;SDS011;6815;59.336;17.998;2022-09-09T05:06:56;2.80;;;1.00;;
13485;SDS011;6815;59.336;17.998;2022-09-09T05:09:21;4.40;;;1.33;;
13485;SDS011;6815;59.336;17.998;2022-09-09T05:11:47;1.80;;;0.97;;
13485;SDS011;6815;59.336;17.998;2022-09-09T05:14:13;4.50;;;1.37;;
13485;SDS011;6815;59.336;17.998;2022-09-09T05:16:40;3.00;;;0.90;;
13485;SDS011;6815;59.336;17.998;2022-09-09T05:19:05;3.70;;;1.00;;
13485;SDS011;6815;59.336;17.998;2022-09-09T05:21:33;2.60;;;1.00;;
13485;SDS011;6815;59.336;17.998;2022-09-09T05:23:59;3.13;;;1.57;;
13485;SDS011;6815;59.336;17.998;2022-09-09T05:26:25;6.80;;;1.80;;
13485;SDS011;6815;59.336;17.998;2022-09-09T05:28:51;6.10;;;1.30;;
13485;SDS011;6815;59.336;17.998;2022-09-09T05:31:17;3.00;;;1.10;;
13485;SDS011;6815;59.336;17.998;2022-09-09T05:33:45;2.13;;;0.90;;
13485;SDS011;6815;59.336;17.998;2022-09-09T05:36:20;2.67;;;0.90;;
13485;SDS011;6815;59.336;17.998;2022-09-09T05:38:47;2.43;;;0.77;;
13485;SDS011;6815;59.336;17.998;2022-09-09T05:41:14;1.50;;;0.90;;
13485;SDS011;6815;59.336;17.998;2022-09-09T05:43:43;2.20;;;0.77;;
13485;SDS011;6815;59.336;17.998;2022-09-09T05:46:13;1.37;;;0.90;;
13485;SDS011;6815;59.336;17.998;2022-09-09T05:48:43;4.00;;;1.00;;
13485;SDS011;6815;59.336;17.998;2022-09-09T05:51:17;2.07;;;0.73;;
13485;SDS011;6815;59.336;17.998;2022-09-09T05:53:51;2.50;;;0.70;;
13485;SDS011;6815;59.336;17.998;2022-09-09T05:56:18;4.33;;;0.73;;
13485;SDS011;6815;59.336;17.998;2022-09-09T05:58:45;3.20;;;0.80;;
13485;SDS011;6815;59.336;17.998;2022-09-09T06:01:21;4.00;;;0.83;;
13485;SDS011;6815;59.336;17.998;2022-09-09T06:03:49;2.73;;;0.77;;
13485;SDS011;6815;59.336;17.998;2022-09-09T06:06:17;2.37;;;0.80;;
13485;SDS011;6815;59.336;17.998;2022-09-09T06:08:46;3.07;;;0.90;;
13485;SDS011;6815;59.336;17.998;2022-09-09T06:11:13;2.20;;;0.87;;
13485;SDS011;6815;59.336;17.998;2022-09-09T06:13:43;2.00;;;0.77;;
13485;SDS011;6815;59.336;17.998;2022-09-09T06:16:13;1.23;;;0.70;;
13485;SDS011;6815;59.336;17.998;2022-09-09T06:18:40;3.87;;;0.77;;
13485;SDS011;6815;59.336;17.998;2022-09-09T06:21:07;2.10;;;0.60;;
13485;SDS011;6815;59.336;17.998;2022-09-09T06:23:36;3.13;;;0.83;;
13485;SDS011;6815;59.336;17.998;2022-09-09T06:28:43;4.40;;;0.90;;
13485;SDS011;6815;59.336;17.998;2022-09-09T06:31:11;1.63;;;0.70;;
13485;SDS011;6815;59.336;17.998;2022-09-09T06:33:41;1.23;;;0.50;;
13485;SDS011;6815;59.336;17.998;2022-09-09T06:36:11;2.00;;;0.60;;
13485;SDS011;6815;59.336;17.998;2022-09-09T06:38:39;4.00;;;0.90;;
13485;SDS011;6815;59.336;17.998;2022-09-09T06:41:05;1.60;;;0.70;;
13485;SDS011;6815;59.336;17.998;2022-09-09T06:43:37;5.13;;;1.20;;
13485;SDS011;6815;59.336;17.998;2022-09-09T06:46:07;3.93;;;0.80;;
13485;SDS011;6815;59.336;17.998;2022-09-09T06:48:35;1.00;;;0.60;;
13485;SDS011;6815;59.336;17.998;2022-09-09T06:51:05;1.50;;;0.70;;
13485;SDS011;6815;59.336;17.998;2022-09-09T06:53:33;2.47;;;0.90;;
13485;SDS011;6815;59.336;17.998;2022-09-09T06:56:22;3.17;;;0.70;;
13485;SDS011;6815;59.336;17.998;2022-09-09T06:59:01;1.73;;;0.67;;
13485;SDS011;6815;59.336;17.998;2022-09-09T07:01:29;5.13;;;0.70;;
13485;SDS011;6815;59.336;17.998;2022-09-09T07:03:59;1.93;;;0.60;;
13485;SDS011;6815;59.336;17.998;2022-09-09T07:08:56;1.90;;;0.70;;
13485;SDS011;6815;59.336;17.998;2022-09-09T07:11:28;3.13;;;0.87;;
13485;SDS011;6815;59.336;17.998;2022-09-09T07:14:14;1.90;;;0.90;;
13485;SDS011;6815;59.336;17.998;2022-09-09T07:16:41;2.40;;;1.10;;
13485;SDS011;6815;59.336;17.998;2022-09-09T07:19:09;2.93;;;1.10;;
13485;SDS011;6815;59.336;17.998;2022-09-09T07:21:35;4.73;;;0.70;;
13485;SDS011;6815;59.336;17.998;2022-09-09T07:24:01;1.67;;;0.70;;
13485;SDS011;6815;59.336;17.998;2022-09-09T07:26:28;3.20;;;0.50;;
13485;SDS011;6815;59.336;17.998;2022-09-09T07:28:55;3.27;;;0.83;;
13485;SDS011;6815;59.336;17.998;2022-09-09T07:31:26;1.60;;;0.70;;
13485;SDS011;6815;59.336;17.998;2022-09-09T07:33:53;3.30;;;0.77;;
13485;SDS011;6815;59.336;17.998;2022-09-09T07:36:24;2.07;;;0.50;;
13485;SDS011;6815;59.336;17.998;2022-09-09T07:38:52;2.87;;;0.70;;
13485;SDS011;6815;59.336;17.998;2022-09-09T07:41:21;2.97;;;0.80;;
13485;SDS011;6815;59.336;17.998;2022-09-09T07:43:49;1.17;;;0.43;;
13485;SDS011;6815;59.336;17.998;2022-09-09T07:46:17;3.17;;;0.90;;
13485;SDS011;6815;59.336;17.998;2022-09-09T07:48:47;2.10;;;0.60;;
13485;SDS011;6815;59.336;17.998;2022-09-09T07:51:19;4.77;;;0.93;;
13485;SDS011;6815;59.336;17.998;2022-09-09T07:53:58;2.50;;;0.80;;
13485;SDS011;6815;59.336;17.998;2022-09-09T07:56:25;4.67;;;1.03;;
13485;SDS011;6815;59.336;17.998;2022-09-09T07:58:53;2.43;;;1.03;;
13485;SDS011;6815;59.336;17.998;2022-09-09T08:01:22;1.70;;;1.00;;
13485;SDS011;6815;59.336;17.998;2022-09-09T08:03:54;3.13;;;0.80;;
13485;SDS011;6815;59.336;17.998;2022-09-09T08:06:26;2.40;;;0.90;;
13485;SDS011;6815;59.336;17.998;2022-09-09T08:08:58;1.47;;;0.80;;
13485;SDS011;6815;59.336;17.998;2022-09-09T08:11:24;1.40;;;0.70;;
13485;SDS011;6815;59.336;17.998;2022-09-09T08:13:51;1.83;;;0.77;;
13485;SDS011;6815;59.336;17.998;2022-09-09T08:16:19;1.67;;;0.70;;
13485;SDS011;6815;59.336;17.998;2022-09-09T08:18:47;1.33;;;0.73;;
13485;SDS011;6815;59.336;17.998;2022-09-09T08:21:18;1.33;;;0.97;;
13485;SDS011;6815;59.336;17.998;2022-09-09T08:23:46;2.03;;;0.70;;
13485;SDS011;6815;59.336;17.998;2022-09-09T08:26:14;2.73;;;0.77;;
13485;SDS011;6815;59.336;17.998;2022-09-09T08:28:42;1.80;;;0.93;;
13485;SDS011;6815;59.336;17.998;2022-09-09T08:31:12;1.97;;;0.83;;
13485;SDS011;6815;59.336;17.998;2022-09-09T08:33:40;1.60;;;0.73;;
13485;SDS011;6815;59.336;17.998;2022-09-09T08:36:06;1.13;;;0.77;;
13485;SDS011;6815;59.336;17.998;2022-09-09T08:38:35;1.70;;;0.67;;
13485;SDS011;6815;59.336;17.998;2022-09-09T08:41:07;1.27;;;0.70;;
13485;SDS011;6815;59.336;17.998;2022-09-09T08:43:41;1.47;;;0.70;;
13485;SDS011;6815;59.336;17.998;2022-09-09T08:46:14;4.50;;;0.70;;
13485;SDS011;6815;59.336;17.998;2022-09-09T08:48:53;2.30;;;0.63;;
13485;SDS011;6815;59.336;17.998;2022-09-09T08:51:27;2.20;;;0.80;;
13485;SDS011;6815;59.336;17.998;2022-09-09T08:53:56;1.90;;;0.87;;
13485;SDS011;6815;59.336;17.998;2022-09-09T08:56:25;4.20;;;1.00;;
13485;SDS011;6815;59.336;17.998;2022-09-09T08:58:53;1.47;;;0.77;;
13485;SDS011;6815;59.336;17.998;2022-09-09T09:12:42;1.47;;;0.77;;
13485;SDS011;6815;59.336;17.998;2022-09-09T09:15:31;1.07;;;0.60;;
13485;SDS011;6815;59.336;17.998;2022-09-09T09:17:59;1.60;;;0.90;;
13485;SDS011;6815;59.336;17.998;2022-09-09T09:20:32;1.33;;;0.80;;
13485;SDS011;6815;59.336;17.998;2022-09-09T09:23:28;1.57;;;0.90;;
13485;SDS011;6815;59.336;17.998;2022-09-09T09:26:05;2.93;;;0.70;;
13485;SDS011;6815;59.336;17.998;2022-09-09T09:28:34;2.90;;;0.90;;
13485;SDS011;6815;59.336;17.998;2022-09-09T09:31:11;1.83;;;0.97;;
13485;SDS011;6815;59.336;17.998;2022-09-09T09:33:49;1.43;;;0.83;;
13485;SDS011;6815;59.336;17.998;2022-09-09T09:36:17;2.17;;;0.87;;
13485;SDS011;6815;59.336;17.998;2022-09-09T09:41:32;2.93;;;0.90;;
13485;SDS011;6815;59.336;17.998;2022-09-09T09:44:01;2.70;;;0.97;;
13485;SDS011;6815;59.336;17.998;2022-09-09T09:46:27;2.43;;;1.10;;
13485;SDS011;6815;59.336;17.998;2022-09-09T09:48:56;3.83;;;1.00;;
13485;SDS011;6815;59.336;17.998;2022-09-09T09:51:28;1.03;;;0.73;;
13485;SDS011;6815;59.336;17.998;2022-09-09T09:54:41;1.73;;;0.90;;
13485;SDS011;6815;59.336;17.998;2022-09-09T09:56:52;2.27;;;0.87;;
13485;SDS011;6815;59.336;17.998;2022-09-09T10:01:48;3.67;;;1.00;;
13485;SDS011;6815;59.336;17.998;2022-09-09T10:04:17;2.83;;;0.80;;
13485;SDS011;6815;59.336;17.998;2022-09-09T10:06:45;2.60;;;0.80;;
13485;SDS011;6815;59.336;17.998;2022-09-09T10:09:20;3.43;;;1.20;;
13485;SDS011;6815;59.336;17.998;2022-09-09T10:12:57;1.70;;;0.90;;
13485;SDS011;6815;59.336;17.998;2022-09-09T10:31:19;1.30;;;0.80;;
13485;SDS011;6815;59.336;17.998;2022-09-09T10:33:50;3.03;;;1.20;;
13485;SDS011;6815;59.336;17.998;2022-09-09T10:36:24;1.93;;;1.20;;
13485;SDS011;6815;59.336;17.998;2022-09-09T10:49:44;1.43;;;1.00;;
13485;SDS011;6815;59.336;17.998;2022-09-09T10:52:42;2.20;;;0.70;;
13485;SDS011;6815;59.336;17.998;2022-09-09T10:55:19;0.60;;;0.60;;
13485;SDS011;6815;59.336;17.998;2022-09-09T10:57:51;1.33;;;0.87;;
13485;SDS011;6815;59.336;17.998;2022-09-09T11:00:19;1.63;;;0.90;;
13485;SDS011;6815;59.336;17.998;2022-09-09T11:02:53;1.50;;;0.80;;
13485;SDS011;6815;59.336;17.998;2022-09-09T11:05:24;1.00;;;0.80;;
13485;SDS011;6815;59.336;17.998;2022-09-09T11:08:12;4.23;;;0.90;;
13485;SDS011;6815;59.336;17.998;2022-09-09T11:10:44;2.17;;;0.90;;
13485;SDS011;6815;59.336;17.998;2022-09-09T11:15:56;1.77;;;0.93;;
13485;SDS011;6815;59.336;17.998;2022-09-09T11:18:26;1.00;;;0.90;;
13485;SDS011;6815;59.336;17.998;2022-09-09T11:20:56;2.97;;;1.00;;
13485;SDS011;6815;59.336;17.998;2022-09-09T11:23:37;2.63;;;1.17;;
13485;SDS011;6815;59.336;17.998;2022-09-09T11:26:07;1.37;;;0.80;;
13485;SDS011;6815;59.336;17.998;2022-09-09T11:40:28;1.50;;;1.00;;
13485;SDS011;6815;59.336;17.998;2022-09-09T11:42:46;1.67;;;1.00;;
13485;SDS011;6815;59.336;17.998;2022-09-09T11:45:22;1.50;;;0.90;;
13485;SDS011;6815;59.336;17.998;2022-09-09T11:47:53;1.90;;;0.90;;
13485;SDS011;6815;59.336;17.998;2022-09-09T11:52:47;1.50;;;0.97;;
13485;SDS011;6815;59.336;17.998;2022-09-09T11:55:30;1.53;;;1.07;;
13485;SDS011;6815;59.336;17.998;2022-09-09T12:02:58;1.27;;;0.90;;
13485;SDS011;6815;59.336;17.998;2022-09-09T12:05:24;1.53;;;1.20;;
13485;SDS011;6815;59.336;17.998;2022-09-09T12:08:03;1.93;;;0.90;;
13485;SDS011;6815;59.336;17.998;2022-09-09T12:10:30;1.90;;;1.30;;
13485;SDS011;6815;59.336;17.998;2022-09-09T12:13:15;1.00;;;0.90;;
13485;SDS011;6815;59.336;17.998;2022-09-09T12:15:49;2.23;;;1.20;;
13485;SDS011;6815;59.336;17.998;2022-09-09T12:18:21;2.00;;;1.30;;
13485;SDS011;6815;59.336;17.998;2022-09-09T12:23:55;1.20;;;0.90;;
13485;SDS011;6815;59.336;17.998;2022-09-09T12:29:01;1.83;;;1.20;;
13485;SDS011;6815;59.336;17.998;2022-09-09T12:31:44;1.80;;;1.15;;
13485;SDS011;6815;59.336;17.998;2022-09-09T12:36:55;2.37;;;1.20;;
13485;SDS011;6815;59.336;17.998;2022-09-09T12:42:16;2.47;;;1.47;;
13485;SDS011;6815;59.336;17.998;2022-09-09T12:44:53;2.30;;;1.03;;
13485;SDS011;6815;59.336;17.998;2022-09-09T12:50:00;1.27;;;1.17;;
13485;SDS011;6815;59.336;17.998;2022-09-09T12:52:27;1.93;;;1.20;;
13485;SDS011;6815;59.336;17.998;2022-09-09T12:54:57;2.70;;;1.20;;
13485;SDS011;6815;59.336;17.998;2022-09-09T12:57:24;1.60;;;1.20;;
13485;SDS011;6815;59.336;17.998;2022-09-09T12:59:51;2.80;;;1.50;;
13485;SDS011;6815;59.336;17.998;2022-09-09T13:02:20;3.00;;;1.27;;
13485;SDS011;6815;59.336;17.998;2022-09-09T13:04:47;2.03;;;1.30;;
13485;SDS011;6815;59.336;17.998;2022-09-09T13:07:15;2.60;;;1.23;;
13485;SDS011;6815;59.336;17.998;2022-09-09T13:09:42;4.03;;;1.10;;
13485;SDS011;6815;59.336;17.998;2022-09-09T13:12:16;1.63;;;1.20;;
13485;SDS011;6815;59.336;17.998;2022-09-09T13:14:45;2.22;;;1.10;;
13485;SDS011;6815;59.336;17.998;2022-09-09T13:17:24;1.47;;;1.20;;
13485;SDS011;6815;59.336;17.998;2022-09-09T13:19:52;2.43;;;1.30;;
13485;SDS011;6815;59.336;17.998;2022-09-09T13:22:31;2.40;;;1.27;;
13485;SDS011;6815;59.336;17.998;2022-09-09T13:27:34;2.10;;;1.10;;
13485;SDS011;6815;59.336;17.998;2022-09-09T13:30:25;1.23;;;1.13;;
13485;SDS011;6815;59.336;17.998;2022-09-09T13:36:12;2.72;;;1.10;;
13485;SDS011;6815;59.336;17.998;2022-09-09T13:38:32;1.30;;;1.00;;
13485;SDS011;6815;59.336;17.998;2022-09-09T13:41:02;3.20;;;1.30;;
13485;SDS011;6815;59.336;17.998;2022-09-09T13:43:45;1.47;;;1.00;;
13485;SDS011;6815;59.336;17.998;2022-09-09T13:48:55;3.93;;;1.23;;
13485;SDS011;6815;59.336;17.998;2022-09-09T13:54:16;2.63;;;1.30;;
13485;SDS011;6815;59.336;17.998;2022-09-09T13:56:43;1.10;;;1.00;;
13485;SDS011;6815;59.336;17.998;2022-09-09T13:59:11;2.30;;;1.20;;
13485;SDS011;6815;59.336;17.998;2022-09-09T14:01:37;1.58;;;1.30;;
13485;SDS011;6815;59.336;17.998;2022-09-09T14:04:03;1.20;;;1.10;;
13485;SDS011;6815;59.336;17.998;2022-09-09T14:06:31;1.57;;;1.10;;
13485;SDS011;6815;59.336;17.998;2022-09-09T14:08:57;1.73;;;1.30;;
13485;SDS011;6815;59.336;17.998;2022-09-09T14:11:22;3.13;;;1.37;;
13485;SDS011;6815;59.336;17.998;2022-09-09T14:13:48;2.20;;;1.10;;
13485;SDS011;6815;59.336;17.998;2022-09-09T14:16:17;2.08;;;1.08;;
13485;SDS011;6815;59.336;17.998;2022-09-09T14:18:43;2.15;;;1.20;;
13485;SDS011;6815;59.336;17.998;2022-09-09T14:21:12;2.15;;;1.20;;
13485;SDS011;6815;59.336;17.998;2022-09-09T14:23:38;2.57;;;1.40;;
13485;SDS011;6815;59.336;17.998;2022-09-09T14:26:07;2.27;;;1.07;;
13485;SDS011;6815;59.336;17.998;2022-09-09T14:28:33;2.40;;;1.20;;
13485;SDS011;6815;59.336;17.998;2022-09-09T14:31:00;2.10;;;1.37;;
13485;SDS011;6815;59.336;17.998;2022-09-09T14:33:27;1.53;;;1.20;;
13485;SDS011;6815;59.336;17.998;2022-09-09T14:36:01;2.20;;;1.38;;
13485;SDS011;6815;59.336;17.998;2022-09-09T14:38:29;1.00;;;0.90;;
13485;SDS011;6815;59.336;17.998;2022-09-09T14:40:55;1.87;;;1.30;;
13485;SDS011;6815;59.336;17.998;2022-09-09T14:43:21;1.83;;;1.08;;
13485;SDS011;6815;59.336;17.998;2022-09-09T14:45:47;1.40;;;1.13;;
13485;SDS011;6815;59.336;17.998;2022-09-09T14:48:16;2.60;;;1.10;;
13485;SDS011;6815;59.336;17.998;2022-09-09T14:50:42;2.60;;;1.20;;
13485;SDS011;6815;59.336;17.998;2022-09-09T14:53:08;2.10;;;1.13;;
13485;SDS011;6815;59.336;17.998;2022-09-09T14:55:34;1.10;;;1.00;;
13485;SDS011;6815;59.336;17.998;2022-09-09T14:58:00;0.97;;;0.87;;
13485;SDS011;6815;59.336;17.998;2022-09-09T15:00:26;1.97;;;1.10;;
13485;SDS011;6815;59.336;17.998;2022-09-09T15:02:52;2.73;;;1.30;;
13485;SDS011;6815;59.336;17.998;2022-09-09T15:05:18;2.20;;;1.23;;
13485;SDS011;6815;59.336;17.998;2022-09-09T15:07:44;1.40;;;1.07;;
13485;SDS011;6815;59.336;17.998;2022-09-09T15:10:10;1.23;;;0.97;;
13485;SDS011;6815;59.336;17.998;2022-09-09T15:12:36;2.10;;;1.20;;
13485;SDS011;6815;59.336;17.998;2022-09-09T15:15:04;4.30;;;1.23;;
13485;SDS011;6815;59.336;17.998;2022-09-09T15:17:30;1.73;;;1.47;;
13485;SDS011;6815;59.336;17.998;2022-09-09T15:19:55;3.00;;;1.20;;
13485;SDS011;6815;59.336;17.998;2022-09-09T15:22:21;1.37;;;1.20;;
13485;SDS011;6815;59.336;17.998;2022-09-09T15:24:47;1.93;;;1.40;;
13485;SDS011;6815;59.336;17.998;2022-09-09T15:27:13;3.00;;;1.30;;
13485;SDS011;6815;59.336;17.998;2022-09-09T15:29:39;1.60;;;1.20;;
13485;SDS011;6815;59.336;17.998;2022-09-09T15:32:05;1.87;;;1.20;;
13485;SDS011;6815;59.336;17.998;2022-09-09T15:34:31;1.53;;;1.20;;
13485;SDS011;6815;59.336;17.998;2022-09-09T15:36:56;1.60;;;1.50;;
13485;SDS011;6815;59.336;17.998;2022-09-09T15:39:22;1.80;;;1.20;;
13485;SDS011;6815;59.336;17.998;2022-09-09T15:41:48;3.67;;;1.40;;
13485;SDS011;6815;59.336;17.998;2022-09-09T15:44:13;1.53;;;1.20;;
13485;SDS011;6815;59.336;17.998;2022-09-09T15:46:50;3.87;;;1.40;;
13485;SDS011;6815;59.336;17.998;2022-09-09T15:49:22;1.60;;;1.30;;
13485;SDS011;6815;59.336;17.998;2022-09-09T15:51:59;1.20;;;1.10;;
13485;SDS011;6815;59.336;17.998;2022-09-09T15:54:28;2.57;;;2.00;;
13485;SDS011;6815;59.336;17.998;2022-09-09T15:56:58;1.83;;;1.30;;
13485;SDS011;6815;59.336;17.998;2022-09-09T15:59:26;3.30;;;1.30;;
13485;SDS011;6815;59.336;17.998;2022-09-09T16:01:53;4.80;;;1.33;;
13485;SDS011;6815;59.336;17.998;2022-09-09T16:04:20;2.70;;;1.70;;
13485;SDS011;6815;59.336;17.998;2022-09-09T16:06:53;1.90;;;1.20;;
13485;SDS011;6815;59.336;17.998;2022-09-09T16:09:26;2.03;;;1.00;;
13485;SDS011;6815;59.336;17.998;2022-09-09T16:11:55;2.90;;;1.10;;
13485;SDS011;6815;59.336;17.998;2022-09-09T16:14:21;2.23;;;1.10;;
13485;SDS011;6815;59.336;17.998;2022-09-09T16:16:47;1.53;;;1.27;;
13485;SDS011;6815;59.336;17.998;2022-09-09T16:19:13;1.50;;;1.13;;
13485;SDS011;6815;59.336;17.998;2022-09-09T16:21:39;1.67;;;1.03;;
13485;SDS011;6815;59.336;17.998;2022-09-09T16:24:07;3.03;;;1.30;;
13485;SDS011;6815;59.336;17.998;2022-09-09T16:26:37;3.50;;;1.17;;
13485;SDS011;6815;59.336;17.998;2022-09-09T16:29:04;1.63;;;1.00;;
13485;SDS011;6815;59.336;17.998;2022-09-09T16:31:30;1.73;;;1.00;;
13485;SDS011;6815;59.336;17.998;2022-09-09T16:33:59;1.93;;;1.10;;
13485;SDS011;6815;59.336;17.998;2022-09-09T16:36:27;4.30;;;1.23;;
13485;SDS011;6815;59.336;17.998;2022-09-09T16:38:59;1.33;;;1.00;;
13485;SDS011;6815;59.336;17.998;2022-09-09T16:41:26;2.23;;;1.33;;
13485;SDS011;6815;59.336;17.998;2022-09-09T16:43:53;4.67;;;1.80;;
13485;SDS011;6815;59.336;17.998;2022-09-09T16:46:20;3.60;;;1.60;;
13485;SDS011;6815;59.336;17.998;2022-09-09T16:48:46;3.47;;;1.40;;
13485;SDS011;6815;59.336;17.998;2022-09-09T16:51:15;2.33;;;1.20;;
13485;SDS011;6815;59.336;17.998;2022-09-09T16:53:46;2.27;;;1.20;;
13485;SDS011;6815;59.336;17.998;2022-09-09T16:56:13;3.23;;;1.40;;
13485;SDS011;6815;59.336;17.998;2022-09-09T16:58:41;1.70;;;1.10;;
13485;SDS011;6815;59.336;17.998;2022-09-09T17:01:10;2.60;;;1.33;;
13485;SDS011;6815;59.336;17.998;2022-09-09T17:03:39;3.03;;;1.20;;
13485;SDS011;6815;59.336;17.998;2022-09-09T17:06:09;4.03;;;1.70;;
13485;SDS011;6815;59.336;17.998;2022-09-09T17:08:36;1.40;;;1.30;;
13485;SDS011;6815;59.336;17.998;2022-09-09T17:11:04;1.83;;;1.30;;
13485;SDS011;6815;59.336;17.998;2022-09-09T17:13:38;2.50;;;1.30;;
13485;SDS011;6815;59.336;17.998;2022-09-09T17:16:05;2.27;;;1.50;;
13485;SDS011;6815;59.336;17.998;2022-09-09T17:18:30;1.80;;;1.23;;
13485;SDS011;6815;59.336;17.998;2022-09-09T17:20:56;2.77;;;1.40;;
13485;SDS011;6815;59.336;17.998;2022-09-09T17:23:28;3.50;;;1.33;;
13485;SDS011;6815;59.336;17.998;2022-09-09T17:25:57;1.70;;;1.60;;
13485;SDS011;6815;59.336;17.998;2022-09-09T17:28:23;1.83;;;1.20;;
13485;SDS011;6815;59.336;17.998;2022-09-09T17:30:52;1.10;;;1.00;;
13485;SDS011;6815;59.336;17.998;2022-09-09T17:33:19;4.13;;;1.70;;
13485;SDS011;6815;59.336;17.998;2022-09-09T17:35:45;4.50;;;1.67;;